Aérodrome :
LOGIN :

S'inscrire | Disclaimer

   EN    FR    IT 

 










Légende :    VFR   VFR Marginal   IFR   IFR Intensif   IFR Très Intensif
Visi : 
Plafond : 
>= 8 km
>= 3000ft
5 à 8 km
1000 à 3000 ft
1500m à 5 km
500 à 1000 ft
800 à 1500m
200 à 500 ft
< 800m
< 200 ft
Symboles :   Orages  Brouillard  Fortes neiges  Fortes précipitations  Vent > 20 kt
SIGMETs :   Divers  Orages  Givrage  Turbulence  Onde Orograph.  Cendres Volcan.






- Altitude de l'aérodrome : 502 ft
- Code IATA : ORK


EICK - Cork

DERNIER METAR :
  • 220030Z 23022G32KT 3000 -RA FEW002 BKN005 BKN012 10/09 Q1009 TEMPO 2000

METARs EXPIRÉS :
  • 212300Z 23022G33KT 2000 -RA FEW002 BKN005 BKN010 10/09 Q1010 TEMPO 1200 BKN002
  • 212230Z 23025KT 2200 -RA FEW002 BKN005 BKN010 09/09 Q1010 TEMPO 1200 BKN002
  • 212200Z 22024KT 2500 -RA FEW002 BKN005 BKN010 09/09 Q1010 TEMPO 1200 BKN002

TAF TAF EICK
Valide du 21 à 18h jusqu'au 22 à 18h UTC


211700Z 2118/2218 23025G36KT 4000 -RADZ SCT005 BKN008
BECMG 2118/2120 2000 BKN004 OVC008
TEMPO 2122/2203 1200 BKN002
TEMPO 2202/2204 24026G45KT
BECMG 2204/2206 26020G35KT 9999 NSW BKN020
TEMPO 2210/2216 -SHRA SCT020CB



MET'MAP, la Météo Aéronautique d'un coup d'oeil ! - Copyright ORBIFLY Décembre 2007 - Disclaimer

ORBIFLY MET'MAP TEAM :

Programmation & Développement : Alexandra Zaïnal
Sur une idée originale de : Baudouin d'Aumeries
Assistance à la programmation : Marc-Olivier Méhu
Soutien technique & logistique : Manuel Goepfert

Contact : metmap@orbifly.com




SOURCES & CREDITS :

   NOAA